Sedgwick Reserve, California Weather observations

Data are for 10 minute period ending at time listed.
 Day   Time   Solar   Ave.   Ave.  Ave.  Vector  Max.   Baro.   Total    
  of    of     Rad.   Air    Rel.  Wind   Wind   Wind  Press.  Precip.   
Year   Day            Temp.  Hum.  Speed  Dir.   Gust                    
2017   (PST)  Kw/m2    F      %     mph   deg.    mph    mb.     in.     
-------------------------------------------------------------------------
 200   12:30   0.94   88.3    28    5.5   200    10.0   973.5    0.00 
 200   12:40   0.93   90.0    26    6.7   232    12.5   973.5    0.00 
 200   12:50   0.92   89.0    28    7.7   241    13.9   973.4    0.00 
 200   13:00   0.91   89.1    29    7.4   236    13.5   973.3    0.00 
 200   13:10   0.90   90.0    28    7.8   254    13.1   973.3    0.00 
 200   13:20   0.88   88.9    29   10.5   250    16.5   973.2    0.00 
 200   13:30   0.87   88.8    29   10.3   258    16.7   973.2    0.00 
 200   13:40   0.85   88.8    29   10.2   261    16.7   973.1    0.00 
 200   13:50   0.84   89.6    29    9.5   288    15.1   973.0    0.00 
 200   14:00   0.82   89.1    30   10.2   259    15.8   973.0    0.00 
 200   14:10   0.80   88.8    31    9.6   255    16.1   972.9    0.00 
 200   14:20   0.77   88.2    32   11.5   286    17.0   972.9    0.00 
 200   14:30   0.75   89.1    32    7.5   281    13.9   972.8    0.00 
 200   14:40   0.73   88.6    32    9.7   290    16.4   972.8    0.00 
 200   14:50   0.70   86.7    34   10.5   278    14.5   972.7    0.00 
 200   15:00   0.67   87.2    33    9.3   275    15.2   972.6    0.00 
 200   15:10   0.65   85.9    32   10.6   272    15.1   972.6    0.00 
 200   15:20   0.62   86.2    30    9.4   272    14.5   972.4    0.00 
 200   15:30   0.59   85.7    29    9.0   282    13.1   972.3    0.00 
 200   15:40   0.56   85.5    28   10.4   282    15.7   972.2    0.00 
 200   15:50   0.53   85.2    29    8.9   288    14.5   972.1    0.00 
 200   16:00   0.50   85.0    28    9.6   290    15.3   972.0    0.00 
 200   16:10   0.47   85.5    29    8.2   281    14.7   972.0    0.00 
 200   16:20   0.44   84.3    31    9.5   275    14.6   972.0    0.00 
 200   16:30   0.40   83.0    34    9.2   270    14.6   971.9    0.00 
 200   16:40   0.37   82.7    34    8.9   276    13.7   971.9    0.00 
 200   16:50   0.34   82.2    35    8.7   270    13.2   971.8    0.00 
 200   17:00   0.31   81.4    34    8.5   282    14.9   971.7    0.00 
 200   17:10   0.27   81.0    33    9.3   286    14.0   971.7    0.00 
 200   17:20   0.24   80.5    31    9.6   286    15.3   971.6    0.00 
 200   17:30   0.21   80.2    29    9.2   270    14.3   971.6    0.00 
 200   17:40   0.18   79.7    33    8.2   271    14.0   971.7    0.00 
 200   17:50   0.15   78.2    37    9.8   268    14.7   971.6    0.00 
 200   18:00   0.12   77.8    37    8.7   267    13.7   971.6    0.00 
 200   18:10   0.09   78.0    36    6.4   263    11.1   971.6    0.00 
 200   18:20   0.07   77.1    36    5.7   263    10.4   971.7    0.00 
 200   18:30   0.04   76.5    38    5.4   267     8.6   971.9    0.00 
 200   18:40   0.02   75.2    40    4.4   256     6.8   972.0    0.00 
 200   18:50   0.01   73.6    44    5.7   242     7.5   972.0    0.00 
 200   19:00   0.01   71.8    49    5.1   238     6.8   972.2    0.00 
 200   19:10   0.00   70.3    53    3.6   207     6.3   972.4    0.00 
 200   19:20   0.00   67.7    60    4.1   130     7.0   972.8    0.00 
 200   19:30   0.00   65.5    64    5.5   120     8.0   973.0    0.00 
 200   19:40   0.00   64.0    67    4.3   117     7.1   973.1    0.00 
 200   19:50   0.00   63.0    69    3.7   116     5.8   973.2    0.00 
 200   20:00   0.00   62.0    71    3.6   113     5.5   973.4    0.00 
 200   20:10   0.00   61.3    72    3.1   123     5.6   973.5    0.00 
 200   20:20   0.00   60.5    74    3.6    97     5.6   973.6    0.00 
 200   20:30   0.00   59.6    76    2.6   112     4.3   973.8    0.00 
 200   20:40   0.00   59.1    77    2.7    93     3.9   973.9    0.00 
 200   20:50   0.00   58.3    79    2.6   102     3.9   974.0    0.00 
 200   21:00   0.00   57.9    80    3.1   115     4.3   974.1    0.00 
 200   21:10   0.00   57.4    81    2.3    97     3.8   974.1    0.00 
 200   21:20   0.00   56.7    83    2.0    79     3.9   974.1    0.00 
 200   21:30   0.00   56.2    84    2.6    94     4.2   974.1    0.00 
 200   21:40   0.00   55.8    86    2.5   108     3.8   974.1    0.00 
 200   21:50   0.00   55.5    87    2.0    91     3.0   974.1    0.00 
 200   22:00   0.00   54.8    87    1.2    33     2.5   974.1    0.00 
 200   22:10   0.00   54.4    87    1.5    14     2.6   974.0    0.00 
 200   22:20   0.00   54.0    86    0.5     8     1.4   974.1    0.00 
 200   22:30   0.00   53.6    86    1.1    14     2.6   974.1    0.00 
 200   22:40   0.00   53.1    84    0.7    10     1.7   974.0    0.00 
 200   22:50   0.00   52.9    86    0.7   280     2.6   974.0    0.00 
 200   23:00   0.00   52.7    86    0.4   243     1.4   973.9    0.00 
 200   23:10   0.00   52.3    86    0.2   265     0.9   973.9    0.00 
 200   23:20   0.00   52.1    86    0.0     0     0.0   973.8    0.00 
 200   23:30   0.00   51.7    87    0.2    40     1.4   973.8    0.00 
 200   23:40   0.00   51.6    87    0.0     0     0.0   973.7    0.00 
 200   23:50   0.00   51.1    87    0.5   222     1.5   973.7    0.00 
 201    0:00   0.00   51.1    87    0.3   231     0.9   973.7    0.00 
 201    0:10   0.00   50.7    87    0.5   226     1.3   973.6    0.00 
 201    0:20   0.00   50.8    88    0.0     0     0.0   973.7    0.00 
 201    0:30   0.00   50.5    88    0.3    24     1.5   973.5    0.00 
 201    0:40   0.00   50.0    88    0.8     8     1.8   973.5    0.00 
 201    0:50   0.00   49.8    89    0.4   347     1.4   973.5    0.00 
 201    1:00   0.00   49.8    89    0.2   273     1.0   973.5    0.00 
 201    1:10   0.00   49.7    90    0.4   349     1.8   973.6    0.00 
 201    1:20   0.00   49.1    89    1.5     7     2.6   973.5    0.00 
 201    1:30   0.00   48.9    89    0.8   341     1.6   973.5    0.00 
 201    1:40   0.00   49.2    90    0.1   284     0.9   973.5    0.00 
 201    1:50   0.00   49.1    90    0.4    24     1.4   973.5    0.00 
 201    2:00   0.00   48.7    89    0.2    32     0.9   973.5    0.00 
 201    2:10   0.00   48.3    89    0.1   128     1.2   973.5    0.00 
 201    2:20   0.00   48.8    90    0.5   264     1.2   973.6    0.00 
 201    2:30   0.00   49.2    91    0.5   352     1.6   973.7    0.00 
 201    2:40   0.00   49.0    93    0.0   341     0.1   973.7    0.00 
 201    2:50   0.00   49.1    93    0.6    11     1.7   973.8    0.00 
 201    3:00   0.00   48.5    95    1.0     1     2.0   973.8    0.00 
 201    3:10   0.00   48.2    96    1.2   354     1.8   973.8    0.00 
 201    3:20   0.00   47.6    96    1.3     4     1.9   973.8    0.00 
 201    3:30   0.00   47.1    97    0.7    18     2.2   973.8    0.00 
 201    3:40   0.00   46.8    98    0.1   358     1.0   973.9    0.00 
 201    3:50   0.00   47.1    98    0.7     7     1.5   973.9    0.00 
 201    4:00   0.00   47.0    98    0.3   329     1.0   973.9    0.00 
 201    4:10   0.00   47.1    98    1.8     0     3.1   974.0    0.00 
 201    4:20   0.00   46.7    98    2.3   356     3.4   974.1    0.00 
 201    4:30   0.00   46.3    98    2.4   357     3.2   974.2    0.00 
 201    4:40   0.00   46.3    99    2.0   357     2.7   974.3    0.00 
 201    4:50   0.00   46.2    99    2.0    11     2.8   974.4    0.00 
 201    5:00   0.00   46.1    99    1.8     4     2.5   974.4    0.00 
 201    5:10   0.00   46.1    99    1.5     5     2.1   974.4    0.00 
 201    5:20   0.01   45.8   100    1.6   344     2.0   974.5    0.00 
 201    5:30   0.01   45.8   100    1.0   326     1.9   974.6    0.00 
 201    5:40   0.02   45.6   100    1.3   356     2.0   974.6    0.00 
 201    5:50   0.04   45.5   100    0.4   342     1.7   974.8    0.00 
 201    6:00   0.08   46.5   100    0.4    15     1.8   974.8    0.00 
 201    6:10   0.16   46.9   100    1.1    10     2.3   974.7    0.00 
 201    6:20   0.20   48.2   100    0.3   166     0.9   974.8    0.00 
 201    6:30   0.24   49.7   100    1.1    75     2.3   974.8    0.00 
 201    6:40   0.24   50.5    99    0.8   107     1.8   974.9    0.00 
 201    6:50   0.32   51.8    98    1.2   152     3.2   975.0    0.00 
 201    7:00   0.36   52.8    98    1.2   164     2.6   975.2    0.00 
 201    7:10   0.39   54.2    96    1.3   140     3.1   975.2    0.00 
 201    7:20   0.43   56.2    89    1.7   107     3.4   975.2    0.00 
 201    7:30   0.46   57.4    82    1.2   140     2.9   975.2    0.00 
 201    7:40   0.50   60.2    74    1.4   108     3.0   975.2    0.00 
 201    7:50   0.53   61.6    70    1.3   130     2.9   975.1    0.00 
 201    8:00   0.56   63.9    65    0.5   160     2.5   975.1    0.00 
 201    8:10   0.59   65.3    63    2.3   124     4.4   975.0    0.00 
 201    8:20   0.62   66.2    62    2.6   143     4.5   975.0    0.00 
 201    8:30   0.65   67.3    60    2.1   150     4.5   974.9    0.00 
 201    8:40   0.68   69.3    55    1.6   134     4.8   974.8    0.00 
 201    8:50   0.71   71.1    52    2.0   154     4.7   974.8    0.00 
 201    9:00   0.74   72.9    49    1.7   147     3.9   974.7    0.00 
 201    9:10   0.76   74.7    47    2.2   127     5.5   974.7    0.00 
 201    9:20   0.79   76.0    46    3.8   142     6.7   974.6    0.00 
 201    9:30   0.81   76.0    46    4.2   137     6.9   974.6    0.00 
 201    9:40   0.83   77.3    44    4.0   177     6.7   974.6    0.00 
 201    9:50   0.85   79.2    42    2.8   161     8.4   974.6    0.00 
 201   10:00   0.87   79.2    42    5.2   170     9.0   974.6    0.00 
 201   10:10   0.88   80.0    40    4.7   240     9.9   974.6    0.00 
 201   10:20   0.90   81.4    37    4.0   190     9.8   974.6    0.00 
 201   10:30   0.91   81.7    37    4.6   204     8.8   974.6    0.00 
 201   10:40   0.92   83.0    35    5.9   236    13.5   974.5    0.00 
 201   10:50   0.93   82.3    34    7.8   235    12.3   974.5    0.00 
 201   11:00   0.94   82.5    34    7.5   236    13.8   974.4    0.00 
 201   11:10   0.95   83.2    35    8.4   224    16.7   974.4    0.00 
 201   11:20   0.95   84.2    34    7.0   242    13.8   974.5    0.00 
 201   11:30   0.95   83.4    34    7.6   241    12.9   974.4    0.00 
 201   11:40   0.92   84.1    34    7.3   266    11.9   974.4    0.00 
 201   11:50   0.95   84.8    34    6.5   271    11.9   974.3    0.00 
 201   12:00   0.95   84.7    33    8.0   259    13.8   974.2    0.00 
 201   12:10   0.95   85.2    32    8.2   256    14.1   974.2    0.00 
 201   12:20   0.95   85.6    32    7.9   266    12.4   974.2    0.00 

Return to Sedgwick Reserve graphs page.


Western Regional Climate Center,wrcc@dri.edu